sensor_id;sensor_type;location;lat;lon;timestamp;temperature;humidity
71396;DHT22;59888;55.814;37.132;2023-03-04T00:02:01;0.24;64.30
71396;DHT22;59888;55.814;37.132;2023-03-04T00:04:27;0.16;64.53
71396;DHT22;59888;55.814;37.132;2023-03-04T00:06:53;0.10;64.52
71396;DHT22;59888;55.814;37.132;2023-03-04T00:09:19;0.06;66.18
71396;DHT22;59888;55.814;37.132;2023-03-04T00:11:45;0.03;65.98
71396;DHT22;59888;55.814;37.132;2023-03-04T00:14:11;0.01;65.80
71396;DHT22;59888;55.814;37.132;2023-03-04T00:16:36;-0.00;65.98
71396;DHT22;59888;55.814;37.132;2023-03-04T00:19:02;0.02;66.78
71396;DHT22;59888;55.814;37.132;2023-03-04T00:21:28;0.06;65.75
71396;DHT22;59888;55.814;37.132;2023-03-04T00:23:54;0.07;65.32
71396;DHT22;59888;55.814;37.132;2023-03-04T00:26:21;0.10;65.61
71396;DHT22;59888;55.814;37.132;2023-03-04T00:28:47;0.12;65.62
71396;DHT22;59888;55.814;37.132;2023-03-04T00:31:13;0.17;65.53
71396;DHT22;59888;55.814;37.132;2023-03-04T00:33:38;0.17;65.75
71396;DHT22;59888;55.814;37.132;2023-03-04T00:36:05;0.20;65.45
71396;DHT22;59888;55.814;37.132;2023-03-04T00:38:31;0.22;65.79
71396;DHT22;59888;55.814;37.132;2023-03-04T00:40:57;0.24;65.37
71396;DHT22;59888;55.814;37.132;2023-03-04T00:43:23;0.22;65.11
71396;DHT22;59888;55.814;37.132;2023-03-04T00:45:49;0.14;65.52
71396;DHT22;59888;55.814;37.132;2023-03-04T00:48:15;0.10;66.65
71396;DHT22;59888;55.814;37.132;2023-03-04T00:50:42;0.10;65.82
71396;DHT22;59888;55.814;37.132;2023-03-04T00:53:08;0.08;66.59
71396;DHT22;59888;55.814;37.132;2023-03-04T00:55:34;0.05;66.23
71396;DHT22;59888;55.814;37.132;2023-03-04T00:58:01;0.05;66.16
71396;DHT22;59888;55.814;37.132;2023-03-04T01:00:27;0.08;67.05
71396;DHT22;59888;55.814;37.132;2023-03-04T01:02:53;0.08;66.03
71396;DHT22;59888;55.814;37.132;2023-03-04T01:05:19;0.03;66.30
71396;DHT22;59888;55.814;37.132;2023-03-04T01:07:45;0.02;66.33
71396;DHT22;59888;55.814;37.132;2023-03-04T01:10:12;0.02;67.27
71396;DHT22;59888;55.814;37.132;2023-03-04T01:12:40;-0.00;66.62
71396;DHT22;59888;55.814;37.132;2023-03-04T01:15:08;0.04;66.48
71396;DHT22;59888;55.814;37.132;2023-03-04T01:17:34;0.01;67.39
71396;DHT22;59888;55.814;37.132;2023-03-04T01:20:01;0.03;66.89
71396;DHT22;59888;55.814;37.132;2023-03-04T01:22:29;0.05;67.03
71396;DHT22;59888;55.814;37.132;2023-03-04T01:24:55;-0.02;67.61
71396;DHT22;59888;55.814;37.132;2023-03-04T01:27:21;-0.07;66.65
71396;DHT22;59888;55.814;37.132;2023-03-04T01:29:48;-0.08;67.04
71396;DHT22;59888;55.814;37.132;2023-03-04T01:32:14;0.01;67.07
71396;DHT22;59888;55.814;37.132;2023-03-04T01:34:41;-0.01;66.91
71396;DHT22;59888;55.814;37.132;2023-03-04T01:37:07;-0.03;67.32
71396;DHT22;59888;55.814;37.132;2023-03-04T01:39:34;0.02;66.59
71396;DHT22;59888;55.814;37.132;2023-03-04T01:41:59;0.06;66.85
71396;DHT22;59888;55.814;37.132;2023-03-04T01:44:25;0.10;66.80
71396;DHT22;59888;55.814;37.132;2023-03-04T01:46:53;0.12;67.13
71396;DHT22;59888;55.814;37.132;2023-03-04T01:49:20;0.16;66.63
71396;DHT22;59888;55.814;37.132;2023-03-04T01:51:52;0.16;67.09
71396;DHT22;59888;55.814;37.132;2023-03-04T01:54:20;0.12;67.01
71396;DHT22;59888;55.814;37.132;2023-03-04T01:56:50;0.08;66.77
71396;DHT22;59888;55.814;37.132;2023-03-04T01:59:29;0.08;67.30
71396;DHT22;59888;55.814;37.132;2023-03-04T02:01:58;0.07;67.26
71396;DHT22;59888;55.814;37.132;2023-03-04T02:04:29;0.04;67.27
71396;DHT22;59888;55.814;37.132;2023-03-04T02:06:56;-0.00;67.50
71396;DHT22;59888;55.814;37.132;2023-03-04T02:09:23;0.02;67.23
71396;DHT22;59888;55.814;37.132;2023-03-04T02:11:50;0.07;67.29
71396;DHT22;59888;55.814;37.132;2023-03-04T02:14:18;0.17;67.19
71396;DHT22;59888;55.814;37.132;2023-03-04T02:16:44;0.18;66.81
71396;DHT22;59888;55.814;37.132;2023-03-04T02:19:41;0.14;67.16
71396;DHT22;59888;55.814;37.132;2023-03-04T02:22:09;0.04;67.20
71396;DHT22;59888;55.814;37.132;2023-03-04T02:24:39;0.05;67.29
71396;DHT22;59888;55.814;37.132;2023-03-04T02:27:06;-0.00;67.71
71396;DHT22;59888;55.814;37.132;2023-03-04T02:29:32;-0.08;66.90
71396;DHT22;59888;55.814;37.132;2023-03-04T02:31:58;-0.12;67.45
71396;DHT22;59888;55.814;37.132;2023-03-04T02:34:28;-0.12;68.30
71396;DHT22;59888;55.814;37.132;2023-03-04T02:36:55;-0.12;67.99
71396;DHT22;59888;55.814;37.132;2023-03-04T02:39:42;-0.14;68.22
71396;DHT22;59888;55.814;37.132;2023-03-04T02:42:11;-0.10;67.78
71396;DHT22;59888;55.814;37.132;2023-03-04T02:44:42;-0.12;67.88
71396;DHT22;59888;55.814;37.132;2023-03-04T02:47:12;-0.12;68.21
71396;DHT22;59888;55.814;37.132;2023-03-04T02:49:39;-0.11;68.02
71396;DHT22;59888;55.814;37.132;2023-03-04T02:52:09;-0.13;67.91
71396;DHT22;59888;55.814;37.132;2023-03-04T02:54:37;-0.13;67.88
71396;DHT22;59888;55.814;37.132;2023-03-04T02:57:08;-0.12;68.26
71396;DHT22;59888;55.814;37.132;2023-03-04T02:59:37;-0.13;68.55
71396;DHT22;59888;55.814;37.132;2023-03-04T03:02:05;-0.09;68.41
71396;DHT22;59888;55.814;37.132;2023-03-04T03:04:33;0.04;68.01
71396;DHT22;59888;55.814;37.132;2023-03-04T03:06:59;0.04;67.62
71396;DHT22;59888;55.814;37.132;2023-03-04T03:09:26;-0.00;67.80
71396;DHT22;59888;55.814;37.132;2023-03-04T03:11:52;-0.08;68.10
71396;DHT22;59888;55.814;37.132;2023-03-04T03:14:18;-0.13;67.39
71396;DHT22;59888;55.814;37.132;2023-03-04T03:16:44;-0.17;67.86
71396;DHT22;59888;55.814;37.132;2023-03-04T03:19:10;-0.12;68.06
71396;DHT22;59888;55.814;37.132;2023-03-04T03:21:37;-0.07;68.23
71396;DHT22;59888;55.814;37.132;2023-03-04T03:24:03;0.03;67.91
71396;DHT22;59888;55.814;37.132;2023-03-04T03:26:30;0.08;67.99
71396;DHT22;59888;55.814;37.132;2023-03-04T03:28:55;0.10;68.78
71396;DHT22;59888;55.814;37.132;2023-03-04T03:31:21;0.15;68.17
71396;DHT22;59888;55.814;37.132;2023-03-04T03:33:47;0.25;67.49
71396;DHT22;59888;55.814;37.132;2023-03-04T03:36:13;0.15;67.30
71396;DHT22;59888;55.814;37.132;2023-03-04T03:38:39;0.09;67.69
71396;DHT22;59888;55.814;37.132;2023-03-04T03:41:05;0.08;67.83
71396;DHT22;59888;55.814;37.132;2023-03-04T03:43:30;0.09;68.05
71396;DHT22;59888;55.814;37.132;2023-03-04T03:45:56;0.09;67.22
71396;DHT22;59888;55.814;37.132;2023-03-04T03:48:22;-0.03;67.94
71396;DHT22;59888;55.814;37.132;2023-03-04T03:50:48;-0.11;67.93
71396;DHT22;59888;55.814;37.132;2023-03-04T03:53:14;-0.23;69.21
71396;DHT22;59888;55.814;37.132;2023-03-04T03:55:40;-0.26;68.24
71396;DHT22;59888;55.814;37.132;2023-03-04T03:58:06;-0.27;68.07
71396;DHT22;59888;55.814;37.132;2023-03-04T04:00:32;-0.25;68.62
71396;DHT22;59888;55.814;37.132;2023-03-04T04:02:59;-0.20;68.33
71396;DHT22;59888;55.814;37.132;2023-03-04T04:05:25;-0.15;68.45
71396;DHT22;59888;55.814;37.132;2023-03-04T04:07:51;-0.17;68.58
71396;DHT22;59888;55.814;37.132;2023-03-04T04:10:20;-0.23;68.44
71396;DHT22;59888;55.814;37.132;2023-03-04T04:12:46;-0.21;68.11
71396;DHT22;59888;55.814;37.132;2023-03-04T04:15:12;-0.20;68.29
71396;DHT22;59888;55.814;37.132;2023-03-04T04:17:38;-0.16;68.46
71396;DHT22;59888;55.814;37.132;2023-03-04T04:20:06;-0.09;68.32
71396;DHT22;59888;55.814;37.132;2023-03-04T04:22:32;-0.05;68.24
71396;DHT22;59888;55.814;37.132;2023-03-04T04:24:58;0.03;68.07
71396;DHT22;59888;55.814;37.132;2023-03-04T04:27:24;0.15;67.91
71396;DHT22;59888;55.814;37.132;2023-03-04T04:29:50;0.27;67.87
71396;DHT22;59888;55.814;37.132;2023-03-04T04:32:16;0.37;67.75
71396;DHT22;59888;55.814;37.132;2023-03-04T04:34:41;0.48;67.55
71396;DHT22;59888;55.814;37.132;2023-03-04T04:37:07;0.59;67.43
71396;DHT22;59888;55.814;37.132;2023-03-04T04:39:33;0.76;67.24
71396;DHT22;59888;55.814;37.132;2023-03-04T04:41:59;0.86;66.98
71396;DHT22;59888;55.814;37.132;2023-03-04T04:44:25;0.93;66.79
71396;DHT22;59888;55.814;37.132;2023-03-04T04:46:51;1.01;66.65
71396;DHT22;59888;55.814;37.132;2023-03-04T04:49:17;1.12;66.51
71396;DHT22;59888;55.814;37.132;2023-03-04T04:51:43;1.21;66.36
71396;DHT22;59888;55.814;37.132;2023-03-04T04:54:09;1.28;66.03
71396;DHT22;59888;55.814;37.132;2023-03-04T04:56:36;1.28;65.85
71396;DHT22;59888;55.814;37.132;2023-03-04T04:59:04;1.32;65.90
71396;DHT22;59888;55.814;37.132;2023-03-04T05:01:30;1.31;65.70
71396;DHT22;59888;55.814;37.132;2023-03-04T05:03:56;1.28;65.69
71396;DHT22;59888;55.814;37.132;2023-03-04T05:06:23;1.23;65.67
71396;DHT22;59888;55.814;37.132;2023-03-04T05:08:50;1.08;65.88
71396;DHT22;59888;55.814;37.132;2023-03-04T05:11:16;1.06;65.99
71396;DHT22;59888;55.814;37.132;2023-03-04T05:13:44;1.04;66.04
71396;DHT22;59888;55.814;37.132;2023-03-04T05:16:10;0.97;66.17
71396;DHT22;59888;55.814;37.132;2023-03-04T05:18:36;1.02;66.30
71396;DHT22;59888;55.814;37.132;2023-03-04T05:21:03;1.09;66.30
71396;DHT22;59888;55.814;37.132;2023-03-04T05:23:31;1.07;66.26
71396;DHT22;59888;55.814;37.132;2023-03-04T05:25:57;1.12;66.32
71396;DHT22;59888;55.814;37.132;2023-03-04T05:28:23;1.22;66.20
71396;DHT22;59888;55.814;37.132;2023-03-04T05:30:49;1.31;66.00
71396;DHT22;59888;55.814;37.132;2023-03-04T05:33:16;1.31;65.86
71396;DHT22;59888;55.814;37.132;2023-03-04T05:35:43;1.39;65.84
71396;DHT22;59888;55.814;37.132;2023-03-04T05:38:12;1.41;65.69
71396;DHT22;59888;55.814;37.132;2023-03-04T05:40:38;1.56;65.57
71396;DHT22;59888;55.814;37.132;2023-03-04T05:43:04;1.67;65.45
71396;DHT22;59888;55.814;37.132;2023-03-04T05:45:30;1.77;65.21
71396;DHT22;59888;55.814;37.132;2023-03-04T05:47:56;1.88;65.17
71396;DHT22;59888;55.814;37.132;2023-03-04T05:50:23;2.05;65.08
71396;DHT22;59888;55.814;37.132;2023-03-04T05:52:52;2.20;64.90
71396;DHT22;59888;55.814;37.132;2023-03-04T05:55:18;2.28;64.48
71396;DHT22;59888;55.814;37.132;2023-03-04T05:57:44;2.29;64.27
71396;DHT22;59888;55.814;37.132;2023-03-04T06:00:11;2.25;64.20
71396;DHT22;59888;55.814;37.132;2023-03-04T06:02:41;2.17;64.08
71396;DHT22;59888;55.814;37.132;2023-03-04T06:05:09;2.12;64.25
71396;DHT22;59888;55.814;37.132;2023-03-04T06:07:36;2.21;64.29
71396;DHT22;59888;55.814;37.132;2023-03-04T06:10:02;2.19;64.02
71396;DHT22;59888;55.814;37.132;2023-03-04T06:12:29;2.19;64.21
71396;DHT22;59888;55.814;37.132;2023-03-04T06:14:55;2.27;64.24
71396;DHT22;59888;55.814;37.132;2023-03-04T06:17:21;2.44;64.12
71396;DHT22;59888;55.814;37.132;2023-03-04T06:19:47;2.53;63.92
71396;DHT22;59888;55.814;37.132;2023-03-04T06:22:13;2.60;63.75
71396;DHT22;59888;55.814;37.132;2023-03-04T06:24:39;2.71;63.65
71396;DHT22;59888;55.814;37.132;2023-03-04T06:27:05;2.79;63.44
71396;DHT22;59888;55.814;37.132;2023-03-04T06:29:31;2.98;63.44
71396;DHT22;59888;55.814;37.132;2023-03-04T06:31:57;3.13;63.27
71396;DHT22;59888;55.814;37.132;2023-03-04T06:34:23;3.28;62.96
71396;DHT22;59888;55.814;37.132;2023-03-04T06:36:49;3.33;62.65
71396;DHT22;59888;55.814;37.132;2023-03-04T06:39:15;3.33;62.64
71396;DHT22;59888;55.814;37.132;2023-03-04T06:41:41;3.44;62.71
71396;DHT22;59888;55.814;37.132;2023-03-04T06:44:09;3.56;62.60
71396;DHT22;59888;55.814;37.132;2023-03-04T06:46:35;3.65;62.36
71396;DHT22;59888;55.814;37.132;2023-03-04T06:49:01;3.75;62.17
71396;DHT22;59888;55.814;37.132;2023-03-04T06:51:27;3.93;62.13
71396;DHT22;59888;55.814;37.132;2023-03-04T06:53:53;4.24;61.92
71396;DHT22;59888;55.814;37.132;2023-03-04T06:56:19;4.47;61.57
71396;DHT22;59888;55.814;37.132;2023-03-04T06:58:45;4.60;61.13
71396;DHT22;59888;55.814;37.132;2023-03-04T07:01:17;4.68;60.83
71396;DHT22;59888;55.814;37.132;2023-03-04T07:03:43;4.75;60.57
71396;DHT22;59888;55.814;37.132;2023-03-04T07:06:14;4.88;60.38
71396;DHT22;59888;55.814;37.132;2023-03-04T07:08:42;4.93;60.00
71396;DHT22;59888;55.814;37.132;2023-03-04T07:11:08;5.04;60.06
71396;DHT22;59888;55.814;37.132;2023-03-04T07:13:35;5.21;60.04
71396;DHT22;59888;55.814;37.132;2023-03-04T07:16:07;5.23;59.38
71396;DHT22;59888;55.814;37.132;2023-03-04T07:18:34;5.25;59.57
71396;DHT22;59888;55.814;37.132;2023-03-04T07:21:00;5.27;59.47
71396;DHT22;59888;55.814;37.132;2023-03-04T07:23:26;5.21;59.23
71396;DHT22;59888;55.814;37.132;2023-03-04T07:25:52;5.19;59.32
71396;DHT22;59888;55.814;37.132;2023-03-04T07:28:18;5.17;59.25
71396;DHT22;59888;55.814;37.132;2023-03-04T07:30:44;5.07;59.32
71396;DHT22;59888;55.814;37.132;2023-03-04T07:33:10;5.02;59.41
71396;DHT22;59888;55.814;37.132;2023-03-04T07:35:36;4.93;59.51
71396;DHT22;59888;55.814;37.132;2023-03-04T07:38:10;4.94;59.18
71396;DHT22;59888;55.814;37.132;2023-03-04T07:40:36;4.94;59.48
71396;DHT22;59888;55.814;37.132;2023-03-04T07:43:02;4.95;59.36
71396;DHT22;59888;55.814;37.132;2023-03-04T07:45:28;4.96;59.38
71396;DHT22;59888;55.814;37.132;2023-03-04T07:47:54;5.01;59.19
71396;DHT22;59888;55.814;37.132;2023-03-04T07:50:20;5.06;59.16
71396;DHT22;59888;55.814;37.132;2023-03-04T07:52:47;5.08;59.08
71396;DHT22;59888;55.814;37.132;2023-03-04T07:55:20;5.00;58.46
71396;DHT22;59888;55.814;37.132;2023-03-04T07:57:46;4.92;59.16
71396;DHT22;59888;55.814;37.132;2023-03-04T08:00:14;4.93;59.45
71396;DHT22;59888;55.814;37.132;2023-03-04T08:02:41;4.90;59.13
71396;DHT22;59888;55.814;37.132;2023-03-04T08:05:09;4.86;59.41
71396;DHT22;59888;55.814;37.132;2023-03-04T08:07:35;4.82;59.24
71396;DHT22;59888;55.814;37.132;2023-03-04T08:10:01;4.82;59.08
71396;DHT22;59888;55.814;37.132;2023-03-04T08:12:28;4.90;58.91
71396;DHT22;59888;55.814;37.132;2023-03-04T08:14:54;4.92;58.82
71396;DHT22;59888;55.814;37.132;2023-03-04T08:17:20;4.98;58.76
71396;DHT22;59888;55.814;37.132;2023-03-04T08:19:46;5.09;58.61
71396;DHT22;59888;55.814;37.132;2023-03-04T08:22:12;5.19;58.40
71396;DHT22;59888;55.814;37.132;2023-03-04T08:24:37;5.27;58.21
71396;DHT22;59888;55.814;37.132;2023-03-04T08:27:04;5.39;57.79
71396;DHT22;59888;55.814;37.132;2023-03-04T08:29:29;5.41;58.43
71396;DHT22;59888;55.814;37.132;2023-03-04T08:31:55;5.33;57.87
71396;DHT22;59888;55.814;37.132;2023-03-04T08:34:24;5.27;57.75
71396;DHT22;59888;55.814;37.132;2023-03-04T08:36:50;5.31;57.14
71396;DHT22;59888;55.814;37.132;2023-03-04T08:39:17;5.32;57.72
71396;DHT22;59888;55.814;37.132;2023-03-04T08:41:44;5.35;57.61
71396;DHT22;59888;55.814;37.132;2023-03-04T08:44:09;5.45;57.48
71396;DHT22;59888;55.814;37.132;2023-03-04T08:46:36;5.43;57.53
71396;DHT22;59888;55.814;37.132;2023-03-04T08:49:03;5.32;57.16
71396;DHT22;59888;55.814;37.132;2023-03-04T08:51:29;5.16;57.77
71396;DHT22;59888;55.814;37.132;2023-03-04T08:53:55;5.02;57.93
71396;DHT22;59888;55.814;37.132;2023-03-04T08:56:21;4.96;57.23
71396;DHT22;59888;55.814;37.132;2023-03-04T08:58:47;4.96;57.33
71396;DHT22;59888;55.814;37.132;2023-03-04T09:01:14;4.92;57.48
71396;DHT22;59888;55.814;37.132;2023-03-04T09:03:41;4.83;57.65
71396;DHT22;59888;55.814;37.132;2023-03-04T09:06:08;4.76;57.70
71396;DHT22;59888;55.814;37.132;2023-03-04T09:08:36;4.79;57.79
71396;DHT22;59888;55.814;37.132;2023-03-04T09:11:02;4.77;57.58
71396;DHT22;59888;55.814;37.132;2023-03-04T09:13:29;4.84;57.86
71396;DHT22;59888;55.814;37.132;2023-03-04T09:15:56;4.95;57.55
71396;DHT22;59888;55.814;37.132;2023-03-04T09:18:23;5.19;57.39
71396;DHT22;59888;55.814;37.132;2023-03-04T09:20:49;5.35;56.77
71396;DHT22;59888;55.814;37.132;2023-03-04T09:23:15;5.43;56.52
71396;DHT22;59888;55.814;37.132;2023-03-04T09:25:43;5.48;56.68
71396;DHT22;59888;55.814;37.132;2023-03-04T09:28:11;5.45;56.48
71396;DHT22;59888;55.814;37.132;2023-03-04T09:30:38;5.55;56.36
71396;DHT22;59888;55.814;37.132;2023-03-04T09:33:04;5.65;56.81
71396;DHT22;59888;55.814;37.132;2023-03-04T09:35:32;5.66;56.18
71396;DHT22;59888;55.814;37.132;2023-03-04T09:37:58;5.66;55.97
71396;DHT22;59888;55.814;37.132;2023-03-04T09:40:41;5.62;56.00
71396;DHT22;59888;55.814;37.132;2023-03-04T09:43:18;5.54;55.96
71396;DHT22;59888;55.814;37.132;2023-03-04T09:45:52;5.51;56.23
71396;DHT22;59888;55.814;37.132;2023-03-04T09:48:21;5.42;56.68
71396;DHT22;59888;55.814;37.132;2023-03-04T09:51:22;5.31;56.11
71396;DHT22;59888;55.814;37.132;2023-03-04T09:54:05;5.27;56.40
71396;DHT22;59888;55.814;37.132;2023-03-04T09:56:41;5.27;56.53
71396;DHT22;59888;55.814;37.132;2023-03-04T09:59:15;5.31;56.58
71396;DHT22;59888;55.814;37.132;2023-03-04T10:01:48;5.35;56.64
71396;DHT22;59888;55.814;37.132;2023-03-04T10:04:35;5.39;56.63
71396;DHT22;59888;55.814;37.132;2023-03-04T10:07:54;5.48;56.64
71396;DHT22;59888;55.814;37.132;2023-03-04T10:10:04;5.60;56.52
71396;DHT22;59888;55.814;37.132;2023-03-04T10:12:33;5.63;56.66
71396;DHT22;59888;55.814;37.132;2023-03-04T10:15:06;5.66;56.44
71396;DHT22;59888;55.814;37.132;2023-03-04T10:17:44;5.71;56.38
71396;DHT22;59888;55.814;37.132;2023-03-04T10:20:18;5.81;56.57
71396;DHT22;59888;55.814;37.132;2023-03-04T10:22:49;5.79;56.32
71396;DHT22;59888;55.814;37.132;2023-03-04T10:25:22;5.78;56.30
71396;DHT22;59888;55.814;37.132;2023-03-04T10:28:17;5.76;56.52
71396;DHT22;59888;55.814;37.132;2023-03-04T10:31:04;5.83;56.45
71396;DHT22;59888;55.814;37.132;2023-03-04T10:33:35;5.90;56.97
71396;DHT22;59888;55.814;37.132;2023-03-04T10:38:33;5.86;56.81
71396;DHT22;59888;55.814;37.132;2023-03-04T10:40:59;5.85;56.84
71396;DHT22;59888;55.814;37.132;2023-03-04T10:43:26;5.91;56.60
71396;DHT22;59888;55.814;37.132;2023-03-04T10:45:57;5.94;56.69
71396;DHT22;59888;55.814;37.132;2023-03-04T10:48:26;5.93;56.56
71396;DHT22;59888;55.814;37.132;2023-03-04T10:50:53;5.85;56.75
71396;DHT22;59888;55.814;37.132;2023-03-04T10:53:40;5.66;56.50
71396;DHT22;59888;55.814;37.132;2023-03-04T10:56:39;5.57;56.30
71396;DHT22;59888;55.814;37.132;2023-03-04T11:01:54;5.42;57.17
71396;DHT22;59888;55.814;37.132;2023-03-04T11:04:25;5.45;57.13
71396;DHT22;59888;55.814;37.132;2023-03-04T11:06:51;5.50;57.18
71396;DHT22;59888;55.814;37.132;2023-03-04T11:09:28;5.59;57.12
71396;DHT22;59888;55.814;37.132;2023-03-04T11:11:58;5.55;57.55
71396;DHT22;59888;55.814;37.132;2023-03-04T11:14:26;5.51;57.20
71396;DHT22;59888;55.814;37.132;2023-03-04T11:17:00;5.46;57.67
71396;DHT22;59888;55.814;37.132;2023-03-04T11:19:36;5.39;57.57
71396;DHT22;59888;55.814;37.132;2023-03-04T11:22:03;5.31;57.96
71396;DHT22;59888;55.814;37.132;2023-03-04T11:24:33;5.21;58.14
71396;DHT22;59888;55.814;37.132;2023-03-04T11:27:03;5.22;58.29
71396;DHT22;59888;55.814;37.132;2023-03-04T11:29:37;5.27;58.41
71396;DHT22;59888;55.814;37.132;2023-03-04T11:32:23;5.31;58.43
71396;DHT22;59888;55.814;37.132;2023-03-04T11:34:58;5.31;58.54
71396;DHT22;59888;55.814;37.132;2023-03-04T11:37:36;5.32;58.51
71396;DHT22;59888;55.814;37.132;2023-03-04T11:40:14;5.16;58.70
71396;DHT22;59888;55.814;37.132;2023-03-04T11:43:00;5.07;59.02
71396;DHT22;59888;55.814;37.132;2023-03-04T11:56:47;4.82;59.64
71396;DHT22;59888;55.814;37.132;2023-03-04T12:02:16;4.86;59.70
71396;DHT22;59888;55.814;37.132;2023-03-04T12:04:47;4.77;59.85
71396;DHT22;59888;55.814;37.132;2023-03-04T12:08:16;4.81;60.18
71396;DHT22;59888;55.814;37.132;2023-03-04T12:11:04;4.84;59.83
71396;DHT22;59888;55.814;37.132;2023-03-04T12:25:00;4.71;60.22
71396;DHT22;59888;55.814;37.132;2023-03-04T12:27:52;4.75;60.32
71396;DHT22;59888;55.814;37.132;2023-03-04T12:30:33;4.77;60.32
71396;DHT22;59888;55.814;37.132;2023-03-04T12:38:21;4.79;60.79
71396;DHT22;59888;55.814;37.132;2023-03-04T12:54:23;4.66;60.90
71396;DHT22;59888;55.814;37.132;2023-03-04T12:57:16;4.68;60.87
71396;DHT22;59888;55.814;37.132;2023-03-04T12:59:56;4.77;60.63
71396;DHT22;59888;55.814;37.132;2023-03-04T13:10:49;4.75;60.71
71396;DHT22;59888;55.814;37.132;2023-03-04T13:13:40;4.72;60.87
71396;DHT22;59888;55.814;37.132;2023-03-04T13:18:38;4.73;61.05
71396;DHT22;59888;55.814;37.132;2023-03-04T13:23:37;4.66;60.93
71396;DHT22;59888;55.814;37.132;2023-03-04T13:26:32;4.67;61.09
71396;DHT22;59888;55.814;37.132;2023-03-04T13:29:30;4.73;60.92
71396;DHT22;59888;55.814;37.132;2023-03-04T13:31:57;4.71;61.03
71396;DHT22;59888;55.814;37.132;2023-03-04T13:34:52;4.73;61.08
71396;DHT22;59888;55.814;37.132;2023-03-04T13:37:35;4.61;61.21
71396;DHT22;59888;55.814;37.132;2023-03-04T13:42:46;4.53;61.52
71396;DHT22;59888;55.814;37.132;2023-03-04T13:45:32;4.48;61.63
71396;DHT22;59888;55.814;37.132;2023-03-04T13:47:59;4.46;61.50
71396;DHT22;59888;55.814;37.132;2023-03-04T13:50:32;4.38;61.63
71396;DHT22;59888;55.814;37.132;2023-03-04T13:56:21;4.26;62.18
71396;DHT22;59888;55.814;37.132;2023-03-04T13:58:50;4.21;61.89
71396;DHT22;59888;55.814;37.132;2023-03-04T14:01:28;4.09;62.18
71396;DHT22;59888;55.814;37.132;2023-03-04T14:03:57;4.03;62.44
71396;DHT22;59888;55.814;37.132;2023-03-04T14:06:27;4.05;62.43
71396;DHT22;59888;55.814;37.132;2023-03-04T14:08:55;4.05;62.53
71396;DHT22;59888;55.814;37.132;2023-03-04T14:11:34;4.04;62.75
71396;DHT22;59888;55.814;37.132;2023-03-04T14:14:05;4.07;62.57
71396;DHT22;59888;55.814;37.132;2023-03-04T14:16:37;4.07;62.65
71396;DHT22;59888;55.814;37.132;2023-03-04T14:19:11;4.08;62.76
71396;DHT22;59888;55.814;37.132;2023-03-04T14:21:44;4.13;62.66
71396;DHT22;59888;55.814;37.132;2023-03-04T14:24:16;4.04;62.71
71396;DHT22;59888;55.814;37.132;2023-03-04T14:26:43;4.05;62.80
71396;DHT22;59888;55.814;37.132;2023-03-04T14:29:27;3.99;63.05
71396;DHT22;59888;55.814;37.132;2023-03-04T14:31:57;3.97;63.07
71396;DHT22;59888;55.814;37.132;2023-03-04T14:34:27;3.91;63.27
71396;DHT22;59888;55.814;37.132;2023-03-04T14:36:54;3.90;63.35
71396;DHT22;59888;55.814;37.132;2023-03-04T14:39:29;3.89;63.38
71396;DHT22;59888;55.814;37.132;2023-03-04T14:42:03;3.89;63.42
71396;DHT22;59888;55.814;37.132;2023-03-04T14:44:48;3.88;63.38
71396;DHT22;59888;55.814;37.132;2023-03-04T14:47:19;3.84;63.10
71396;DHT22;59888;55.814;37.132;2023-03-04T14:49:49;3.79;63.53
71396;DHT22;59888;55.814;37.132;2023-03-04T14:52:36;3.83;63.64
71396;DHT22;59888;55.814;37.132;2023-03-04T14:55:26;3.80;63.73
71396;DHT22;59888;55.814;37.132;2023-03-04T14:58:38;3.76;63.79
71396;DHT22;59888;55.814;37.132;2023-03-04T15:00:39;3.80;63.84
71396;DHT22;59888;55.814;37.132;2023-03-04T15:03:27;3.77;63.79
71396;DHT22;59888;55.814;37.132;2023-03-04T15:05:53;3.77;63.66
71396;DHT22;59888;55.814;37.132;2023-03-04T15:08:28;3.72;63.73
71396;DHT22;59888;55.814;37.132;2023-03-04T15:10:57;3.64;64.11
71396;DHT22;59888;55.814;37.132;2023-03-04T15:13:43;3.68;64.28
71396;DHT22;59888;55.814;37.132;2023-03-04T15:16:12;3.74;64.07
71396;DHT22;59888;55.814;37.132;2023-03-04T15:18:52;3.74;63.87
71396;DHT22;59888;55.814;37.132;2023-03-04T15:23:46;3.59;64.28
71396;DHT22;59888;55.814;37.132;2023-03-04T15:26:12;3.58;64.41
71396;DHT22;59888;55.814;37.132;2023-03-04T15:28:41;3.59;64.45
71396;DHT22;59888;55.814;37.132;2023-03-04T15:31:18;3.59;64.50
71396;DHT22;59888;55.814;37.132;2023-03-04T15:33:44;3.53;64.49
71396;DHT22;59888;55.814;37.132;2023-03-04T15:36:16;3.54;64.67
71396;DHT22;59888;55.814;37.132;2023-03-04T15:38:46;3.56;64.66
71396;DHT22;59888;55.814;37.132;2023-03-04T15:41:21;3.60;64.69
71396;DHT22;59888;55.814;37.132;2023-03-04T15:43:47;3.63;64.55
71396;DHT22;59888;55.814;37.132;2023-03-04T15:46:13;3.59;64.55
71396;DHT22;59888;55.814;37.132;2023-03-04T15:48:41;3.58;64.72
71396;DHT22;59888;55.814;37.132;2023-03-04T15:51:12;3.57;64.92
71396;DHT22;59888;55.814;37.132;2023-03-04T15:53:44;3.60;64.90
71396;DHT22;59888;55.814;37.132;2023-03-04T16:00:11;3.61;64.77
71396;DHT22;59888;55.814;37.132;2023-03-04T16:02:37;3.58;64.85
71396;DHT22;59888;55.814;37.132;2023-03-04T16:05:05;3.60;64.78
71396;DHT22;59888;55.814;37.132;2023-03-04T16:07:32;3.59;64.76
71396;DHT22;59888;55.814;37.132;2023-03-04T16:10:01;3.60;64.84
71396;DHT22;59888;55.814;37.132;2023-03-04T16:12:29;3.58;64.79
71396;DHT22;59888;55.814;37.132;2023-03-04T16:14:54;3.58;64.97
71396;DHT22;59888;55.814;37.132;2023-03-04T16:17:20;3.57;64.92
71396;DHT22;59888;55.814;37.132;2023-03-04T16:19:46;3.57;64.89
71396;DHT22;59888;55.814;37.132;2023-03-04T16:22:17;3.57;65.06
71396;DHT22;59888;55.814;37.132;2023-03-04T16:24:44;3.57;65.09
71396;DHT22;59888;55.814;37.132;2023-03-04T16:27:14;3.55;64.97
71396;DHT22;59888;55.814;37.132;2023-03-04T16:29:40;3.54;65.17
71396;DHT22;59888;55.814;37.132;2023-03-04T16:32:06;3.54;65.02
71396;DHT22;59888;55.814;37.132;2023-03-04T16:34:32;3.52;65.08
71396;DHT22;59888;55.814;37.132;2023-03-04T16:37:04;3.49;65.10
71396;DHT22;59888;55.814;37.132;2023-03-04T16:39:31;3.44;65.23
71396;DHT22;59888;55.814;37.132;2023-03-04T16:41:58;3.48;65.21
71396;DHT22;59888;55.814;37.132;2023-03-04T16:44:24;3.49;65.29
71396;DHT22;59888;55.814;37.132;2023-03-04T16:46:50;3.52;65.09
71396;DHT22;59888;55.814;37.132;2023-03-04T16:49:24;3.49;65.20
71396;DHT22;59888;55.814;37.132;2023-03-04T16:51:52;3.44;65.36
71396;DHT22;59888;55.814;37.132;2023-03-04T16:54:26;3.34;65.50
71396;DHT22;59888;55.814;37.132;2023-03-04T16:56:55;3.26;65.83
71396;DHT22;59888;55.814;37.132;2023-03-04T16:59:21;3.17;65.50
71396;DHT22;59888;55.814;37.132;2023-03-04T17:01:48;3.00;67.44